sensor_id;sensor_type;location;lat;lon;timestamp;P1;durP1;ratioP1;P2;durP2;ratioP2
6356;SDS011;3211;53.452;-2.264;2023-05-10T00:00:19;11.87;;;5.60;;
6356;SDS011;3211;53.452;-2.264;2023-05-10T00:03:04;14.40;;;5.00;;
6356;SDS011;3211;53.452;-2.264;2023-05-10T00:05:46;15.60;;;5.30;;
6356;SDS011;3211;53.452;-2.264;2023-05-10T00:08:27;10.33;;;5.60;;
6356;SDS011;3211;53.452;-2.264;2023-05-10T00:11:09;8.43;;;4.70;;
6356;SDS011;3211;53.452;-2.264;2023-05-10T00:13:51;18.10;;;5.90;;
6356;SDS011;3211;53.452;-2.264;2023-05-10T00:16:33;13.60;;;5.10;;
6356;SDS011;3211;53.452;-2.264;2023-05-10T00:19:17;8.83;;;4.77;;
6356;SDS011;3211;53.452;-2.264;2023-05-10T00:21:58;11.20;;;5.23;;
6356;SDS011;3211;53.452;-2.264;2023-05-10T00:24:40;12.10;;;5.10;;
6356;SDS011;3211;53.452;-2.264;2023-05-10T00:27:22;12.60;;;5.30;;
6356;SDS011;3211;53.452;-2.264;2023-05-10T00:30:05;12.70;;;5.17;;
6356;SDS011;3211;53.452;-2.264;2023-05-10T00:32:48;9.53;;;4.50;;
6356;SDS011;3211;53.452;-2.264;2023-05-10T00:35:33;13.20;;;5.30;;
6356;SDS011;3211;53.452;-2.264;2023-05-10T00:38:15;13.67;;;4.97;;
6356;SDS011;3211;53.452;-2.264;2023-05-10T00:40:57;13.87;;;5.00;;
6356;SDS011;3211;53.452;-2.264;2023-05-10T00:43:39;11.77;;;5.30;;
6356;SDS011;3211;53.452;-2.264;2023-05-10T00:46:21;12.63;;;4.73;;
6356;SDS011;3211;53.452;-2.264;2023-05-10T00:49:03;14.07;;;5.00;;
6356;SDS011;3211;53.452;-2.264;2023-05-10T00:51:47;10.57;;;5.10;;
6356;SDS011;3211;53.452;-2.264;2023-05-10T00:54:29;9.73;;;4.53;;
6356;SDS011;3211;53.452;-2.264;2023-05-10T00:57:11;12.93;;;4.80;;
6356;SDS011;3211;53.452;-2.264;2023-05-10T00:59:53;13.87;;;5.37;;
6356;SDS011;3211;53.452;-2.264;2023-05-10T01:02:35;15.53;;;4.73;;
6356;SDS011;3211;53.452;-2.264;2023-05-10T01:05:17;13.13;;;5.40;;
6356;SDS011;3211;53.452;-2.264;2023-05-10T01:08:01;11.70;;;4.67;;
6356;SDS011;3211;53.452;-2.264;2023-05-10T01:10:43;9.60;;;4.87;;
6356;SDS011;3211;53.452;-2.264;2023-05-10T01:13:29;8.03;;;4.07;;
6356;SDS011;3211;53.452;-2.264;2023-05-10T01:16:14;14.30;;;5.70;;
6356;SDS011;3211;53.452;-2.264;2023-05-10T01:18:57;10.50;;;4.47;;
6356;SDS011;3211;53.452;-2.264;2023-05-10T01:21:48;15.33;;;5.00;;
6356;SDS011;3211;53.452;-2.264;2023-05-10T01:24:40;13.20;;;5.37;;
6356;SDS011;3211;53.452;-2.264;2023-05-10T01:27:55;15.47;;;5.73;;
6356;SDS011;3211;53.452;-2.264;2023-05-10T01:31:03;17.30;;;5.03;;
6356;SDS011;3211;53.452;-2.264;2023-05-10T01:33:54;11.00;;;4.93;;
6356;SDS011;3211;53.452;-2.264;2023-05-10T01:36:40;12.20;;;4.97;;
6356;SDS011;3211;53.452;-2.264;2023-05-10T01:39:28;14.47;;;5.10;;
6356;SDS011;3211;53.452;-2.264;2023-05-10T01:42:19;13.40;;;4.37;;
6356;SDS011;3211;53.452;-2.264;2023-05-10T01:45:07;9.40;;;4.60;;
6356;SDS011;3211;53.452;-2.264;2023-05-10T01:48:03;10.73;;;4.33;;
6356;SDS011;3211;53.452;-2.264;2023-05-10T01:50:49;12.03;;;4.80;;
6356;SDS011;3211;53.452;-2.264;2023-05-10T01:53:32;10.40;;;4.70;;
6356;SDS011;3211;53.452;-2.264;2023-05-10T01:56:16;12.10;;;4.50;;
6356;SDS011;3211;53.452;-2.264;2023-05-10T01:59:04;10.10;;;4.90;;
6356;SDS011;3211;53.452;-2.264;2023-05-10T02:01:49;13.13;;;5.40;;
6356;SDS011;3211;53.452;-2.264;2023-05-10T02:04:33;15.20;;;5.80;;
6356;SDS011;3211;53.452;-2.264;2023-05-10T02:07:20;17.30;;;4.50;;
6356;SDS011;3211;53.452;-2.264;2023-05-10T02:10:03;10.27;;;4.40;;
6356;SDS011;3211;53.452;-2.264;2023-05-10T02:12:47;10.17;;;4.97;;
6356;SDS011;3211;53.452;-2.264;2023-05-10T02:15:30;12.90;;;5.50;;
6356;SDS011;3211;53.452;-2.264;2023-05-10T02:18:13;10.63;;;4.80;;
6356;SDS011;3211;53.452;-2.264;2023-05-10T02:20:57;14.70;;;5.97;;
6356;SDS011;3211;53.452;-2.264;2023-05-10T02:23:41;10.03;;;6.00;;
6356;SDS011;3211;53.452;-2.264;2023-05-10T02:26:25;10.60;;;4.97;;
6356;SDS011;3211;53.452;-2.264;2023-05-10T02:29:08;9.63;;;5.47;;
6356;SDS011;3211;53.452;-2.264;2023-05-10T02:31:52;16.07;;;5.60;;
6356;SDS011;3211;53.452;-2.264;2023-05-10T02:34:36;11.77;;;5.70;;
6356;SDS011;3211;53.452;-2.264;2023-05-10T02:37:19;10.57;;;4.97;;
6356;SDS011;3211;53.452;-2.264;2023-05-10T02:40:04;11.10;;;5.40;;
6356;SDS011;3211;53.452;-2.264;2023-05-10T02:42:47;14.50;;;5.20;;
6356;SDS011;3211;53.452;-2.264;2023-05-10T02:45:31;12.97;;;4.97;;
6356;SDS011;3211;53.452;-2.264;2023-05-10T02:48:15;9.60;;;5.37;;
6356;SDS011;3211;53.452;-2.264;2023-05-10T02:50:59;17.07;;;5.37;;
6356;SDS011;3211;53.452;-2.264;2023-05-10T02:53:46;15.53;;;4.97;;
6356;SDS011;3211;53.452;-2.264;2023-05-10T02:56:33;20.37;;;5.63;;
6356;SDS011;3211;53.452;-2.264;2023-05-10T02:59:17;11.43;;;5.23;;
6356;SDS011;3211;53.452;-2.264;2023-05-10T03:01:59;12.47;;;5.37;;
6356;SDS011;3211;53.452;-2.264;2023-05-10T03:04:42;9.83;;;5.40;;
6356;SDS011;3211;53.452;-2.264;2023-05-10T03:07:24;13.33;;;5.47;;
6356;SDS011;3211;53.452;-2.264;2023-05-10T03:10:06;14.60;;;5.63;;
6356;SDS011;3211;53.452;-2.264;2023-05-10T03:12:57;16.50;;;6.30;;
6356;SDS011;3211;53.452;-2.264;2023-05-10T03:15:47;10.67;;;6.30;;
6356;SDS011;3211;53.452;-2.264;2023-05-10T03:18:37;22.10;;;6.40;;
6356;SDS011;3211;53.452;-2.264;2023-05-10T03:21:25;13.60;;;6.10;;
6356;SDS011;3211;53.452;-2.264;2023-05-10T03:24:11;12.80;;;6.60;;
6356;SDS011;3211;53.452;-2.264;2023-05-10T03:26:55;13.97;;;5.73;;
6356;SDS011;3211;53.452;-2.264;2023-05-10T03:29:41;15.70;;;5.50;;
6356;SDS011;3211;53.452;-2.264;2023-05-10T03:32:24;15.90;;;5.70;;
6356;SDS011;3211;53.452;-2.264;2023-05-10T03:35:07;14.50;;;6.50;;
6356;SDS011;3211;53.452;-2.264;2023-05-10T03:37:49;13.70;;;6.23;;
6356;SDS011;3211;53.452;-2.264;2023-05-10T03:40:31;11.10;;;5.70;;
6356;SDS011;3211;53.452;-2.264;2023-05-10T03:43:13;14.27;;;5.47;;
6356;SDS011;3211;53.452;-2.264;2023-05-10T03:45:56;16.43;;;6.67;;
6356;SDS011;3211;53.452;-2.264;2023-05-10T03:48:38;12.13;;;5.67;;
6356;SDS011;3211;53.452;-2.264;2023-05-10T03:51:20;17.77;;;6.07;;
6356;SDS011;3211;53.452;-2.264;2023-05-10T03:54:02;19.03;;;5.87;;
6356;SDS011;3211;53.452;-2.264;2023-05-10T03:56:44;16.13;;;5.87;;
6356;SDS011;3211;53.452;-2.264;2023-05-10T03:59:27;10.80;;;6.30;;
6356;SDS011;3211;53.452;-2.264;2023-05-10T04:02:11;12.77;;;5.47;;
6356;SDS011;3211;53.452;-2.264;2023-05-10T04:04:53;11.90;;;5.13;;
6356;SDS011;3211;53.452;-2.264;2023-05-10T04:07:35;13.27;;;6.13;;
6356;SDS011;3211;53.452;-2.264;2023-05-10T04:10:17;12.90;;;5.80;;
6356;SDS011;3211;53.452;-2.264;2023-05-10T04:12:59;14.67;;;5.60;;
6356;SDS011;3211;53.452;-2.264;2023-05-10T04:15:40;16.20;;;5.60;;
6356;SDS011;3211;53.452;-2.264;2023-05-10T04:18:24;11.57;;;5.00;;
6356;SDS011;3211;53.452;-2.264;2023-05-10T04:21:10;13.20;;;5.83;;
6356;SDS011;3211;53.452;-2.264;2023-05-10T04:23:53;8.67;;;5.90;;
6356;SDS011;3211;53.452;-2.264;2023-05-10T04:26:35;11.83;;;5.77;;
6356;SDS011;3211;53.452;-2.264;2023-05-10T04:29:17;15.47;;;6.00;;
6356;SDS011;3211;53.452;-2.264;2023-05-10T04:31:59;12.30;;;6.17;;
6356;SDS011;3211;53.452;-2.264;2023-05-10T04:34:42;12.37;;;5.50;;
6356;SDS011;3211;53.452;-2.264;2023-05-10T04:37:24;12.17;;;5.67;;
6356;SDS011;3211;53.452;-2.264;2023-05-10T04:40:07;13.13;;;5.50;;
6356;SDS011;3211;53.452;-2.264;2023-05-10T04:42:49;15.77;;;5.67;;
6356;SDS011;3211;53.452;-2.264;2023-05-10T04:45:31;15.17;;;5.70;;
6356;SDS011;3211;53.452;-2.264;2023-05-10T04:48:13;15.33;;;5.17;;
6356;SDS011;3211;53.452;-2.264;2023-05-10T04:50:56;12.40;;;5.60;;
6356;SDS011;3211;53.452;-2.264;2023-05-10T04:53:38;11.77;;;5.73;;
6356;SDS011;3211;53.452;-2.264;2023-05-10T04:56:20;13.67;;;6.03;;
6356;SDS011;3211;53.452;-2.264;2023-05-10T04:59:03;11.27;;;5.40;;
6356;SDS011;3211;53.452;-2.264;2023-05-10T05:01:45;10.63;;;5.47;;
6356;SDS011;3211;53.452;-2.264;2023-05-10T05:04:26;17.50;;;6.07;;
6356;SDS011;3211;53.452;-2.264;2023-05-10T05:07:10;19.83;;;7.03;;
6356;SDS011;3211;53.452;-2.264;2023-05-10T05:09:52;12.80;;;6.53;;
6356;SDS011;3211;53.452;-2.264;2023-05-10T05:12:34;11.83;;;5.70;;
6356;SDS011;3211;53.452;-2.264;2023-05-10T05:15:16;13.07;;;5.80;;
6356;SDS011;3211;53.452;-2.264;2023-05-10T05:17:58;12.80;;;5.87;;
6356;SDS011;3211;53.452;-2.264;2023-05-10T05:20:40;13.07;;;6.13;;
6356;SDS011;3211;53.452;-2.264;2023-05-10T05:23:24;17.37;;;6.30;;
6356;SDS011;3211;53.452;-2.264;2023-05-10T05:26:05;15.30;;;6.83;;
6356;SDS011;3211;53.452;-2.264;2023-05-10T05:28:47;13.00;;;7.10;;
6356;SDS011;3211;53.452;-2.264;2023-05-10T05:31:32;12.93;;;6.57;;
6356;SDS011;3211;53.452;-2.264;2023-05-10T05:34:14;19.20;;;6.47;;
6356;SDS011;3211;53.452;-2.264;2023-05-10T05:36:56;19.27;;;6.60;;
6356;SDS011;3211;53.452;-2.264;2023-05-10T05:39:39;14.30;;;5.90;;
6356;SDS011;3211;53.452;-2.264;2023-05-10T05:42:22;13.70;;;6.93;;
6356;SDS011;3211;53.452;-2.264;2023-05-10T05:45:04;10.20;;;6.50;;
6356;SDS011;3211;53.452;-2.264;2023-05-10T05:47:48;15.33;;;6.43;;
6356;SDS011;3211;53.452;-2.264;2023-05-10T05:50:30;16.60;;;7.30;;
6356;SDS011;3211;53.452;-2.264;2023-05-10T05:53:12;12.80;;;5.97;;
6356;SDS011;3211;53.452;-2.264;2023-05-10T05:55:56;18.93;;;7.00;;
6356;SDS011;3211;53.452;-2.264;2023-05-10T05:58:39;16.70;;;7.10;;
6356;SDS011;3211;53.452;-2.264;2023-05-10T06:01:21;14.10;;;6.27;;
6356;SDS011;3211;53.452;-2.264;2023-05-10T06:04:03;14.67;;;6.80;;
6356;SDS011;3211;53.452;-2.264;2023-05-10T06:06:45;13.73;;;6.53;;
6356;SDS011;3211;53.452;-2.264;2023-05-10T06:09:26;12.33;;;6.10;;
6356;SDS011;3211;53.452;-2.264;2023-05-10T06:12:10;16.23;;;6.13;;
6356;SDS011;3211;53.452;-2.264;2023-05-10T06:14:52;16.90;;;6.57;;
6356;SDS011;3211;53.452;-2.264;2023-05-10T06:17:34;16.27;;;6.80;;
6356;SDS011;3211;53.452;-2.264;2023-05-10T06:20:16;18.90;;;6.80;;
6356;SDS011;3211;53.452;-2.264;2023-05-10T06:22:58;19.70;;;6.47;;
6356;SDS011;3211;53.452;-2.264;2023-05-10T06:25:40;11.73;;;6.07;;
6356;SDS011;3211;53.452;-2.264;2023-05-10T06:28:24;12.53;;;6.07;;
6356;SDS011;3211;53.452;-2.264;2023-05-10T06:31:06;12.20;;;5.77;;
6356;SDS011;3211;53.452;-2.264;2023-05-10T06:33:48;18.53;;;6.23;;
6356;SDS011;3211;53.452;-2.264;2023-05-10T06:36:30;17.53;;;7.00;;
6356;SDS011;3211;53.452;-2.264;2023-05-10T06:39:12;10.40;;;4.90;;
6356;SDS011;3211;53.452;-2.264;2023-05-10T06:41:54;15.10;;;5.50;;
6356;SDS011;3211;53.452;-2.264;2023-05-10T06:44:37;10.60;;;5.10;;
6356;SDS011;3211;53.452;-2.264;2023-05-10T06:47:19;12.40;;;5.00;;
6356;SDS011;3211;53.452;-2.264;2023-05-10T06:50:02;11.03;;;4.93;;
6356;SDS011;3211;53.452;-2.264;2023-05-10T06:52:44;12.53;;;4.70;;
6356;SDS011;3211;53.452;-2.264;2023-05-10T06:55:26;9.23;;;4.30;;
6356;SDS011;3211;53.452;-2.264;2023-05-10T06:58:08;10.27;;;4.80;;
6356;SDS011;3211;53.452;-2.264;2023-05-10T07:00:51;12.90;;;4.80;;
6356;SDS011;3211;53.452;-2.264;2023-05-10T07:03:33;8.10;;;3.93;;
6356;SDS011;3211;53.452;-2.264;2023-05-10T07:06:15;10.40;;;4.30;;
6356;SDS011;3211;53.452;-2.264;2023-05-10T07:08:57;7.97;;;4.50;;
6356;SDS011;3211;53.452;-2.264;2023-05-10T07:11:39;11.17;;;3.90;;
6356;SDS011;3211;53.452;-2.264;2023-05-10T07:14:21;8.70;;;4.30;;
6356;SDS011;3211;53.452;-2.264;2023-05-10T07:17:04;9.30;;;3.87;;
6356;SDS011;3211;53.452;-2.264;2023-05-10T07:19:47;8.30;;;3.70;;
6356;SDS011;3211;53.452;-2.264;2023-05-10T07:22:29;11.27;;;4.10;;
6356;SDS011;3211;53.452;-2.264;2023-05-10T07:25:11;8.60;;;3.57;;
6356;SDS011;3211;53.452;-2.264;2023-05-10T07:27:53;7.53;;;3.70;;
6356;SDS011;3211;53.452;-2.264;2023-05-10T07:30:35;9.83;;;4.37;;
6356;SDS011;3211;53.452;-2.264;2023-05-10T07:33:19;8.83;;;3.40;;
6356;SDS011;3211;53.452;-2.264;2023-05-10T07:36:01;11.73;;;4.63;;
6356;SDS011;3211;53.452;-2.264;2023-05-10T07:38:42;8.20;;;3.93;;
6356;SDS011;3211;53.452;-2.264;2023-05-10T07:41:24;5.93;;;3.33;;
6356;SDS011;3211;53.452;-2.264;2023-05-10T07:44:07;10.93;;;3.87;;
6356;SDS011;3211;53.452;-2.264;2023-05-10T07:46:49;7.83;;;4.00;;
6356;SDS011;3211;53.452;-2.264;2023-05-10T07:49:32;4.90;;;3.30;;
6356;SDS011;3211;53.452;-2.264;2023-05-10T07:52:14;13.73;;;3.90;;
6356;SDS011;3211;53.452;-2.264;2023-05-10T07:54:56;7.17;;;2.97;;
6356;SDS011;3211;53.452;-2.264;2023-05-10T07:57:38;4.63;;;2.93;;
6356;SDS011;3211;53.452;-2.264;2023-05-10T08:00:20;5.63;;;3.00;;
6356;SDS011;3211;53.452;-2.264;2023-05-10T08:03:02;7.30;;;3.17;;
6356;SDS011;3211;53.452;-2.264;2023-05-10T08:05:45;5.93;;;2.63;;
6356;SDS011;3211;53.452;-2.264;2023-05-10T08:08:27;6.53;;;2.80;;
6356;SDS011;3211;53.452;-2.264;2023-05-10T08:11:09;8.57;;;3.10;;
6356;SDS011;3211;53.452;-2.264;2023-05-10T08:13:52;9.40;;;2.67;;
6356;SDS011;3211;53.452;-2.264;2023-05-10T08:16:33;7.33;;;3.00;;
6356;SDS011;3211;53.452;-2.264;2023-05-10T08:19:15;6.70;;;2.77;;
6356;SDS011;3211;53.452;-2.264;2023-05-10T08:22:02;13.77;;;3.43;;
6356;SDS011;3211;53.452;-2.264;2023-05-10T08:24:44;3.87;;;2.37;;
6356;SDS011;3211;53.452;-2.264;2023-05-10T08:27:26;8.40;;;3.17;;
6356;SDS011;3211;53.452;-2.264;2023-05-10T08:30:08;7.23;;;2.83;;
6356;SDS011;3211;53.452;-2.264;2023-05-10T08:32:52;7.77;;;3.33;;
6356;SDS011;3211;53.452;-2.264;2023-05-10T08:35:34;13.03;;;2.77;;
6356;SDS011;3211;53.452;-2.264;2023-05-10T08:38:17;8.47;;;3.00;;
6356;SDS011;3211;53.452;-2.264;2023-05-10T08:40:59;6.53;;;2.93;;
6356;SDS011;3211;53.452;-2.264;2023-05-10T08:43:43;9.67;;;3.30;;
6356;SDS011;3211;53.452;-2.264;2023-05-10T08:46:26;13.30;;;6.20;;
6356;SDS011;3211;53.452;-2.264;2023-05-10T08:49:10;8.03;;;3.13;;
6356;SDS011;3211;53.452;-2.264;2023-05-10T08:51:57;8.80;;;2.70;;
6356;SDS011;3211;53.452;-2.264;2023-05-10T08:54:42;5.20;;;2.70;;
6356;SDS011;3211;53.452;-2.264;2023-05-10T08:57:25;9.03;;;3.57;;
6356;SDS011;3211;53.452;-2.264;2023-05-10T09:00:07;6.23;;;2.70;;
6356;SDS011;3211;53.452;-2.264;2023-05-10T09:02:50;6.90;;;2.87;;
6356;SDS011;3211;53.452;-2.264;2023-05-10T09:05:32;5.50;;;2.60;;
6356;SDS011;3211;53.452;-2.264;2023-05-10T09:08:14;4.83;;;3.00;;
6356;SDS011;3211;53.452;-2.264;2023-05-10T09:10:59;7.30;;;3.60;;
6356;SDS011;3211;53.452;-2.264;2023-05-10T09:13:43;5.93;;;3.10;;
6356;SDS011;3211;53.452;-2.264;2023-05-10T09:16:25;6.20;;;2.80;;
6356;SDS011;3211;53.452;-2.264;2023-05-10T09:19:07;9.30;;;3.37;;
6356;SDS011;3211;53.452;-2.264;2023-05-10T09:21:49;8.10;;;3.07;;
6356;SDS011;3211;53.452;-2.264;2023-05-10T09:24:31;8.67;;;3.70;;
6356;SDS011;3211;53.452;-2.264;2023-05-10T09:27:15;4.43;;;2.33;;
6356;SDS011;3211;53.452;-2.264;2023-05-10T09:29:56;6.20;;;3.20;;
6356;SDS011;3211;53.452;-2.264;2023-05-10T09:32:39;10.20;;;3.50;;
6356;SDS011;3211;53.452;-2.264;2023-05-10T09:35:22;5.80;;;3.17;;
6356;SDS011;3211;53.452;-2.264;2023-05-10T09:38:05;10.53;;;3.13;;
6356;SDS011;3211;53.452;-2.264;2023-05-10T09:40:50;7.70;;;3.40;;
6356;SDS011;3211;53.452;-2.264;2023-05-10T09:43:38;6.83;;;3.13;;
6356;SDS011;3211;53.452;-2.264;2023-05-10T09:46:21;2.83;;;1.70;;
6356;SDS011;3211;53.452;-2.264;2023-05-10T09:49:03;3.37;;;1.73;;
6356;SDS011;3211;53.452;-2.264;2023-05-10T09:51:47;3.30;;;2.10;;
6356;SDS011;3211;53.452;-2.264;2023-05-10T09:54:38;3.87;;;2.10;;
6356;SDS011;3211;53.452;-2.264;2023-05-10T09:57:33;5.73;;;2.43;;
6356;SDS011;3211;53.452;-2.264;2023-05-10T10:00:18;7.33;;;2.73;;
6356;SDS011;3211;53.452;-2.264;2023-05-10T10:03:00;3.40;;;2.50;;
6356;SDS011;3211;53.452;-2.264;2023-05-10T10:05:43;2.70;;;2.20;;
6356;SDS011;3211;53.452;-2.264;2023-05-10T10:08:26;4.47;;;2.30;;
6356;SDS011;3211;53.452;-2.264;2023-05-10T10:11:08;3.30;;;2.83;;
6356;SDS011;3211;53.452;-2.264;2023-05-10T10:13:50;5.03;;;2.90;;
6356;SDS011;3211;53.452;-2.264;2023-05-10T10:16:35;13.90;;;3.37;;
6356;SDS011;3211;53.452;-2.264;2023-05-10T10:19:17;4.50;;;3.00;;
6356;SDS011;3211;53.452;-2.264;2023-05-10T10:21:59;4.77;;;3.40;;
6356;SDS011;3211;53.452;-2.264;2023-05-10T10:24:42;5.80;;;2.97;;
6356;SDS011;3211;53.452;-2.264;2023-05-10T10:27:26;4.80;;;3.30;;
6356;SDS011;3211;53.452;-2.264;2023-05-10T10:30:18;8.73;;;3.27;;
6356;SDS011;3211;53.452;-2.264;2023-05-10T10:33:18;2.70;;;2.50;;
6356;SDS011;3211;53.452;-2.264;2023-05-10T10:36:17;5.20;;;2.57;;
6356;SDS011;3211;53.452;-2.264;2023-05-10T10:39:05;2.33;;;2.13;;
6356;SDS011;3211;53.452;-2.264;2023-05-10T10:41:52;3.87;;;2.20;;
6356;SDS011;3211;53.452;-2.264;2023-05-10T10:44:36;4.10;;;2.30;;
6356;SDS011;3211;53.452;-2.264;2023-05-10T10:47:23;3.33;;;1.80;;
6356;SDS011;3211;53.452;-2.264;2023-05-10T10:50:08;4.03;;;2.20;;
6356;SDS011;3211;53.452;-2.264;2023-05-10T10:52:52;5.03;;;2.10;;
6356;SDS011;3211;53.452;-2.264;2023-05-10T10:55:34;7.53;;;2.00;;
6356;SDS011;3211;53.452;-2.264;2023-05-10T10:58:29;3.60;;;1.80;;
6356;SDS011;3211;53.452;-2.264;2023-05-10T11:01:12;7.30;;;2.40;;
6356;SDS011;3211;53.452;-2.264;2023-05-10T11:09:53;6.03;;;2.40;;
6356;SDS011;3211;53.452;-2.264;2023-05-10T11:12:45;4.70;;;2.10;;
6356;SDS011;3211;53.452;-2.264;2023-05-10T11:15:33;5.03;;;2.03;;
6356;SDS011;3211;53.452;-2.264;2023-05-10T11:18:16;3.50;;;2.27;;
6356;SDS011;3211;53.452;-2.264;2023-05-10T11:21:00;4.40;;;2.20;;
6356;SDS011;3211;53.452;-2.264;2023-05-10T11:23:48;3.33;;;1.97;;
6356;SDS011;3211;53.452;-2.264;2023-05-10T11:26:34;3.30;;;1.93;;
6356;SDS011;3211;53.452;-2.264;2023-05-10T11:29:17;6.10;;;2.20;;
6356;SDS011;3211;53.452;-2.264;2023-05-10T11:31:59;0.80;;;0.80;;
6356;SDS011;3211;53.452;-2.264;2023-05-10T11:34:41;8.33;;;3.10;;
6356;SDS011;3211;53.452;-2.264;2023-05-10T11:37:28;3.50;;;2.30;;
6356;SDS011;3211;53.452;-2.264;2023-05-10T11:40:14;4.23;;;2.73;;
6356;SDS011;3211;53.452;-2.264;2023-05-10T11:42:57;3.40;;;2.70;;
6356;SDS011;3211;53.452;-2.264;2023-05-10T11:45:40;4.53;;;2.50;;
6356;SDS011;3211;53.452;-2.264;2023-05-10T11:48:23;3.67;;;2.00;;
6356;SDS011;3211;53.452;-2.264;2023-05-10T11:51:05;5.90;;;2.20;;
6356;SDS011;3211;53.452;-2.264;2023-05-10T11:53:48;8.40;;;1.90;;
6356;SDS011;3211;53.452;-2.264;2023-05-10T11:56:32;4.40;;;2.33;;
6356;SDS011;3211;53.452;-2.264;2023-05-10T11:59:15;4.67;;;2.17;;
6356;SDS011;3211;53.452;-2.264;2023-05-10T12:01:57;8.43;;;2.57;;
6356;SDS011;3211;53.452;-2.264;2023-05-10T12:04:39;12.43;;;2.30;;
6356;SDS011;3211;53.452;-2.264;2023-05-10T12:07:22;3.73;;;2.10;;
6356;SDS011;3211;53.452;-2.264;2023-05-10T12:10:07;8.33;;;2.60;;
6356;SDS011;3211;53.452;-2.264;2023-05-10T12:12:51;6.13;;;1.93;;
6356;SDS011;3211;53.452;-2.264;2023-05-10T12:15:35;4.30;;;1.90;;
6356;SDS011;3211;53.452;-2.264;2023-05-10T12:18:22;3.97;;;1.90;;
6356;SDS011;3211;53.452;-2.264;2023-05-10T12:21:05;2.90;;;1.90;;
6356;SDS011;3211;53.452;-2.264;2023-05-10T12:26:30;5.20;;;2.60;;
6356;SDS011;3211;53.452;-2.264;2023-05-10T12:29:13;4.10;;;1.90;;
6356;SDS011;3211;53.452;-2.264;2023-05-10T12:31:58;3.93;;;1.93;;
6356;SDS011;3211;53.452;-2.264;2023-05-10T12:34:40;3.70;;;2.00;;
6356;SDS011;3211;53.452;-2.264;2023-05-10T12:37:23;5.50;;;2.43;;
6356;SDS011;3211;53.452;-2.264;2023-05-10T12:40:09;2.83;;;2.00;;
6356;SDS011;3211;53.452;-2.264;2023-05-10T12:42:52;4.53;;;2.40;;
6356;SDS011;3211;53.452;-2.264;2023-05-10T12:48:08;4.10;;;2.27;;
6356;SDS011;3211;53.452;-2.264;2023-05-10T12:50:50;3.00;;;2.17;;
6356;SDS011;3211;53.452;-2.264;2023-05-10T12:53:32;3.90;;;1.80;;
6356;SDS011;3211;53.452;-2.264;2023-05-10T12:56:14;3.43;;;1.80;;
6356;SDS011;3211;53.452;-2.264;2023-05-10T12:58:56;5.07;;;1.90;;
6356;SDS011;3211;53.452;-2.264;2023-05-10T13:01:37;3.33;;;1.50;;
6356;SDS011;3211;53.452;-2.264;2023-05-10T13:04:21;3.50;;;1.70;;
6356;SDS011;3211;53.452;-2.264;2023-05-10T13:07:03;3.43;;;1.97;;
6356;SDS011;3211;53.452;-2.264;2023-05-10T13:09:45;3.20;;;1.70;;
6356;SDS011;3211;53.452;-2.264;2023-05-10T13:12:26;3.50;;;1.93;;
6356;SDS011;3211;53.452;-2.264;2023-05-10T13:15:09;1.80;;;1.60;;
6356;SDS011;3211;53.452;-2.264;2023-05-10T13:17:52;4.57;;;2.20;;
6356;SDS011;3211;53.452;-2.264;2023-05-10T13:20:36;4.80;;;2.10;;
6356;SDS011;3211;53.452;-2.264;2023-05-10T13:23:18;7.30;;;2.30;;
6356;SDS011;3211;53.452;-2.264;2023-05-10T13:26:00;3.03;;;2.53;;
6356;SDS011;3211;53.452;-2.264;2023-05-10T13:28:43;4.63;;;2.30;;
6356;SDS011;3211;53.452;-2.264;2023-05-10T13:31:26;4.77;;;2.13;;
6356;SDS011;3211;53.452;-2.264;2023-05-10T13:34:07;5.97;;;2.07;;
6356;SDS011;3211;53.452;-2.264;2023-05-10T13:36:51;6.37;;;2.77;;
6356;SDS011;3211;53.452;-2.264;2023-05-10T13:39:33;5.57;;;3.50;;
6356;SDS011;3211;53.452;-2.264;2023-05-10T13:42:17;4.67;;;2.13;;
6356;SDS011;3211;53.452;-2.264;2023-05-10T13:44:59;10.57;;;1.90;;
6356;SDS011;3211;53.452;-2.264;2023-05-10T13:47:41;4.93;;;2.57;;
6356;SDS011;3211;53.452;-2.264;2023-05-10T13:50:23;5.10;;;2.50;;
6356;SDS011;3211;53.452;-2.264;2023-05-10T13:53:07;6.17;;;2.37;;
6356;SDS011;3211;53.452;-2.264;2023-05-10T13:55:49;2.20;;;1.80;;
6356;SDS011;3211;53.452;-2.264;2023-05-10T13:58:31;5.50;;;2.20;;
6356;SDS011;3211;53.452;-2.264;2023-05-10T14:01:13;2.40;;;1.90;;
6356;SDS011;3211;53.452;-2.264;2023-05-10T14:03:55;3.17;;;2.10;;
6356;SDS011;3211;53.452;-2.264;2023-05-10T14:06:37;3.77;;;2.30;;
6356;SDS011;3211;53.452;-2.264;2023-05-10T14:09:20;4.70;;;2.30;;
6356;SDS011;3211;53.452;-2.264;2023-05-10T14:12:02;4.10;;;2.37;;
6356;SDS011;3211;53.452;-2.264;2023-05-10T14:14:44;6.83;;;2.37;;
6356;SDS011;3211;53.452;-2.264;2023-05-10T14:17:26;4.33;;;2.53;;
6356;SDS011;3211;53.452;-2.264;2023-05-10T14:20:08;6.10;;;2.50;;
6356;SDS011;3211;53.452;-2.264;2023-05-10T14:22:51;3.43;;;2.20;;
6356;SDS011;3211;53.452;-2.264;2023-05-10T14:25:35;3.03;;;2.30;;
6356;SDS011;3211;53.452;-2.264;2023-05-10T14:28:18;4.57;;;2.60;;
6356;SDS011;3211;53.452;-2.264;2023-05-10T14:31:00;8.47;;;2.83;;
6356;SDS011;3211;53.452;-2.264;2023-05-10T14:33:42;3.73;;;2.43;;
6356;SDS011;3211;53.452;-2.264;2023-05-10T14:36:24;3.43;;;2.30;;
6356;SDS011;3211;53.452;-2.264;2023-05-10T14:39:06;5.50;;;2.70;;
6356;SDS011;3211;53.452;-2.264;2023-05-10T14:41:51;4.50;;;2.50;;
6356;SDS011;3211;53.452;-2.264;2023-05-10T14:44:33;5.27;;;2.20;;
6356;SDS011;3211;53.452;-2.264;2023-05-10T14:47:15;7.73;;;2.80;;
6356;SDS011;3211;53.452;-2.264;2023-05-10T14:49:57;6.60;;;2.50;;
6356;SDS011;3211;53.452;-2.264;2023-05-10T14:52:39;4.93;;;1.90;;
6356;SDS011;3211;53.452;-2.264;2023-05-10T14:55:21;3.60;;;2.10;;
6356;SDS011;3211;53.452;-2.264;2023-05-10T14:58:04;2.30;;;1.90;;
6356;SDS011;3211;53.452;-2.264;2023-05-10T15:00:46;4.13;;;1.40;;
6356;SDS011;3211;53.452;-2.264;2023-05-10T15:03:28;2.50;;;1.23;;
6356;SDS011;3211;53.452;-2.264;2023-05-10T15:06:10;2.40;;;1.47;;
6356;SDS011;3211;53.452;-2.264;2023-05-10T15:08:52;2.17;;;1.50;;
6356;SDS011;3211;53.452;-2.264;2023-05-10T15:11:34;4.87;;;1.30;;
6356;SDS011;3211;53.452;-2.264;2023-05-10T15:14:18;1.93;;;1.30;;
6356;SDS011;3211;53.452;-2.264;2023-05-10T15:17:00;2.00;;;1.27;;
6356;SDS011;3211;53.452;-2.264;2023-05-10T15:19:42;4.27;;;1.73;;
6356;SDS011;3211;53.452;-2.264;2023-05-10T15:22:24;3.03;;;1.90;;
6356;SDS011;3211;53.452;-2.264;2023-05-10T15:25:08;2.40;;;2.10;;
6356;SDS011;3211;53.452;-2.264;2023-05-10T15:27:50;1.70;;;1.50;;
6356;SDS011;3211;53.452;-2.264;2023-05-10T15:30:34;3.50;;;1.70;;
6356;SDS011;3211;53.452;-2.264;2023-05-10T15:33:15;1.47;;;1.37;;
6356;SDS011;3211;53.452;-2.264;2023-05-10T15:35:57;2.60;;;1.50;;
6356;SDS011;3211;53.452;-2.264;2023-05-10T15:38:39;2.70;;;1.50;;
6356;SDS011;3211;53.452;-2.264;2023-05-10T15:41:21;4.17;;;1.83;;
6356;SDS011;3211;53.452;-2.264;2023-05-10T15:44:04;4.57;;;1.50;;
6356;SDS011;3211;53.452;-2.264;2023-05-10T15:46:48;3.87;;;1.60;;
6356;SDS011;3211;53.452;-2.264;2023-05-10T15:49:30;1.47;;;1.27;;
6356;SDS011;3211;53.452;-2.264;2023-05-10T15:52:12;1.50;;;1.30;;
6356;SDS011;3211;53.452;-2.264;2023-05-10T15:54:54;3.10;;;1.40;;
6356;SDS011;3211;53.452;-2.264;2023-05-10T15:57:36;2.43;;;1.27;;
6356;SDS011;3211;53.452;-2.264;2023-05-10T16:00:18;1.70;;;1.30;;
6356;SDS011;3211;53.452;-2.264;2023-05-10T16:03:02;3.43;;;1.60;;
6356;SDS011;3211;53.452;-2.264;2023-05-10T16:05:44;5.53;;;1.70;;
6356;SDS011;3211;53.452;-2.264;2023-05-10T16:08:26;3.93;;;1.50;;
6356;SDS011;3211;53.452;-2.264;2023-05-10T16:11:09;4.80;;;1.50;;
6356;SDS011;3211;53.452;-2.264;2023-05-10T16:13:52;4.63;;;1.50;;
6356;SDS011;3211;53.452;-2.264;2023-05-10T16:16:34;2.13;;;1.57;;
6356;SDS011;3211;53.452;-2.264;2023-05-10T16:19:17;1.70;;;1.53;;
6356;SDS011;3211;53.452;-2.264;2023-05-10T16:21:59;2.07;;;1.50;;
6356;SDS011;3211;53.452;-2.264;2023-05-10T16:24:41;4.67;;;1.60;;
6356;SDS011;3211;53.452;-2.264;2023-05-10T16:27:23;1.73;;;1.57;;
6356;SDS011;3211;53.452;-2.264;2023-05-10T16:30:08;2.70;;;1.50;;
6356;SDS011;3211;53.452;-2.264;2023-05-10T16:32:50;3.63;;;1.70;;
6356;SDS011;3211;53.452;-2.264;2023-05-10T16:35:33;3.50;;;1.70;;
6356;SDS011;3211;53.452;-2.264;2023-05-10T16:38:15;1.67;;;1.40;;
6356;SDS011;3211;53.452;-2.264;2023-05-10T16:40:57;2.17;;;1.60;;
6356;SDS011;3211;53.452;-2.264;2023-05-10T16:43:42;2.53;;;1.53;;